createdAt,value
2017-07-05T00:00:02.116Z,14.30
2017-07-05T00:02:30.740Z,14.20
2017-07-05T00:04:59.305Z,14.30
2017-07-05T00:07:28.110Z,14.30
2017-07-05T00:09:56.584Z,14.30
2017-07-05T00:12:25.259Z,14.20
2017-07-05T00:14:53.978Z,14.30
2017-07-05T00:17:22.437Z,14.30
2017-07-05T00:19:50.932Z,14.20
2017-07-05T00:22:20.077Z,14.30
2017-07-05T00:24:48.549Z,14.40
2017-07-05T00:27:17.152Z,14.30
2017-07-05T00:29:45.642Z,14.40
2017-07-05T00:32:14.126Z,14.40
2017-07-05T00:34:42.786Z,14.40
2017-07-05T00:37:11.705Z,14.30
2017-07-05T00:39:40.194Z,14.30
2017-07-05T00:42:09.378Z,14.40
2017-07-05T00:44:37.965Z,14.30
2017-07-05T00:47:06.982Z,14.30
2017-07-05T00:49:35.765Z,14.20
2017-07-05T00:52:04.261Z,14.20
2017-07-05T00:54:32.913Z,14.20
2017-07-05T00:57:01.505Z,14.40
2017-07-05T00:59:30.515Z,14.30
2017-07-05T01:01:59.069Z,14.30
2017-07-05T01:04:27.565Z,14.30
2017-07-05T01:06:56.077Z,14.20
2017-07-05T01:09:25.047Z,14.20
2017-07-05T01:11:53.626Z,14.10
2017-07-05T01:14:22.329Z,14.10
2017-07-05T01:16:50.909Z,14.10
2017-07-05T01:19:19.729Z,14.10
2017-07-05T01:21:48.276Z,14.10
2017-07-05T01:24:16.729Z,14.10
2017-07-05T01:26:45.251Z,14.10
2017-07-05T01:29:13.722Z,14.10
2017-07-05T01:31:42.321Z,14.20
2017-07-05T01:34:10.925Z,14.10
2017-07-05T01:36:39.501Z,14.10
2017-07-05T01:39:08.067Z,14.10
2017-07-05T01:41:37.059Z,14.10
2017-07-05T01:44:05.632Z,14.10
2017-07-05T01:46:34.149Z,14.00
2017-07-05T01:49:02.665Z,14.00
2017-07-05T01:51:31.295Z,14.00
2017-07-05T01:53:59.957Z,13.90
2017-07-05T01:56:28.844Z,13.80
2017-07-05T01:58:57.489Z,13.80
2017-07-05T02:01:26.174Z,13.70
2017-07-05T02:03:54.665Z,13.70
2017-07-05T02:06:23.231Z,13.70
2017-07-05T02:08:52.001Z,13.70
2017-07-05T02:11:20.592Z,13.70
2017-07-05T02:13:49.324Z,13.70
2017-07-05T02:16:17.775Z,13.70
2017-07-05T02:18:46.265Z,13.70
2017-07-05T02:21:14.730Z,13.50
2017-07-05T02:23:43.191Z,13.50
2017-07-05T02:26:11.821Z,13.50
2017-07-05T02:28:40.312Z,13.40
2017-07-05T02:31:09.156Z,13.40
2017-07-05T02:33:37.649Z,13.30
2017-07-05T02:36:06.230Z,13.30
2017-07-05T02:38:34.702Z,13.30
2017-07-05T02:41:03.211Z,13.30
2017-07-05T02:43:31.686Z,13.20
2017-07-05T02:46:00.362Z,13.20
2017-07-05T02:48:28.828Z,13.20
2017-07-05T02:50:57.325Z,13.20
2017-07-05T02:53:26.034Z,13.10
2017-07-05T02:55:55.052Z,13.10
2017-07-05T02:58:23.513Z,13.20
2017-07-05T03:00:51.957Z,13.10
2017-07-05T03:03:20.417Z,13.10
2017-07-05T03:05:48.878Z,13.10
2017-07-05T03:08:17.333Z,13.10
2017-07-05T03:10:45.811Z,13.10
2017-07-05T03:13:14.570Z,13.10
2017-07-05T03:15:43.051Z,13.10
2017-07-05T03:18:11.847Z,13.00
2017-07-05T03:20:40.592Z,12.90
2017-07-05T03:23:09.081Z,12.80
2017-07-05T03:25:37.525Z,12.70
2017-07-05T03:28:06.013Z,12.70
2017-07-05T03:30:34.668Z,12.70
2017-07-05T03:33:03.149Z,12.70
2017-07-05T03:35:31.717Z,12.70
2017-07-05T03:38:00.995Z,12.70
2017-07-05T03:40:29.750Z,12.60
2017-07-05T03:42:58.721Z,12.70
2017-07-05T03:45:27.183Z,12.70
2017-07-05T03:47:56.689Z,12.70
2017-07-05T03:50:25.242Z,12.70
2017-07-05T03:52:53.788Z,12.70
2017-07-05T03:55:22.483Z,12.70
2017-07-05T03:57:50.929Z,12.60
2017-07-05T04:00:19.484Z,12.60
2017-07-05T04:02:48.197Z,12.60
2017-07-05T04:05:17.394Z,12.70
2017-07-05T04:07:47.047Z,12.80
2017-07-05T04:10:15.614Z,12.70
2017-07-05T04:12:44.122Z,12.80
2017-07-05T04:15:12.890Z,12.90
2017-07-05T04:17:41.521Z,12.90
2017-07-05T04:20:10.014Z,12.90
2017-07-05T04:22:38.502Z,12.90
2017-07-05T04:25:07.189Z,12.90
2017-07-05T04:27:36.596Z,12.80
2017-07-05T04:30:05.093Z,12.70
2017-07-05T04:32:33.865Z,12.80
2017-07-05T04:35:02.319Z,12.80
2017-07-05T04:37:30.805Z,12.70
2017-07-05T04:39:59.464Z,12.70
2017-07-05T04:42:28.109Z,12.70
2017-07-05T04:44:57.343Z,12.80
2017-07-05T04:47:25.870Z,12.80
2017-07-05T04:49:54.453Z,12.80
2017-07-05T04:52:23.053Z,12.90
2017-07-05T04:54:51.751Z,12.90
2017-07-05T04:57:21.971Z,13.00
2017-07-05T04:59:51.338Z,13.10
2017-07-05T05:02:19.860Z,13.10
2017-07-05T05:04:48.388Z,13.00
2017-07-05T05:07:16.879Z,13.00
2017-07-05T05:09:45.391Z,13.10
2017-07-05T05:12:13.854Z,13.20
2017-07-05T05:14:42.772Z,13.20
2017-07-05T05:17:12.225Z,13.10
2017-07-05T05:19:40.774Z,13.00
2017-07-05T05:22:09.985Z,13.00
2017-07-05T05:24:38.466Z,12.90
2017-07-05T05:27:06.984Z,12.90
2017-07-05T05:29:35.719Z,12.90
2017-07-05T05:32:04.272Z,12.90
2017-07-05T05:34:33.255Z,13.00
2017-07-05T05:37:01.751Z,13.10
2017-07-05T05:39:30.430Z,13.10
2017-07-05T05:41:58.973Z,13.20
2017-07-05T05:44:27.601Z,13.10
2017-07-05T05:46:56.447Z,13.20
2017-07-05T05:49:25.086Z,13.20
2017-07-05T05:51:53.662Z,13.40
2017-07-05T05:54:22.239Z,13.40
2017-07-05T05:56:50.801Z,13.50
2017-07-05T05:59:19.440Z,13.60
2017-07-05T06:01:48.967Z,13.50
2017-07-05T06:04:17.453Z,13.40
2017-07-05T06:06:46.085Z,13.50
2017-07-05T06:09:14.582Z,13.50
2017-07-05T06:11:43.468Z,13.60
2017-07-05T06:14:11.957Z,13.60
2017-07-05T06:16:40.656Z,13.70
2017-07-05T06:19:09.773Z,13.80
2017-07-05T06:21:38.989Z,13.70
2017-07-05T06:24:07.422Z,13.70
2017-07-05T06:26:35.937Z,13.70
2017-07-05T06:29:04.510Z,13.60
2017-07-05T06:31:33.047Z,13.60
2017-07-05T06:34:01.951Z,13.60
2017-07-05T06:36:30.526Z,13.70
2017-07-05T06:38:59.111Z,13.80
2017-07-05T06:41:27.723Z,14.10
2017-07-05T06:43:56.294Z,14.00
2017-07-05T06:46:24.800Z,13.90
2017-07-05T06:48:53.628Z,13.80
2017-07-05T06:51:22.518Z,13.90
2017-07-05T06:53:51.161Z,13.90
2017-07-05T06:56:19.919Z,13.90
2017-07-05T06:58:49.016Z,13.80
2017-07-05T07:01:17.814Z,13.90
2017-07-05T07:03:46.389Z,14.00
2017-07-05T07:06:14.898Z,14.00
2017-07-05T07:08:44.210Z,14.20
2017-07-05T07:11:12.684Z,14.20
2017-07-05T07:13:41.145Z,14.30
2017-07-05T07:16:10.554Z,14.50
2017-07-05T07:18:39.748Z,14.60
2017-07-05T07:21:08.405Z,14.50
2017-07-05T07:23:37.829Z,14.40
2017-07-05T07:26:07.019Z,14.50
2017-07-05T07:28:35.523Z,14.50
2017-07-05T07:31:04.045Z,14.50
2017-07-05T07:33:32.541Z,14.60
2017-07-05T07:36:01.866Z,14.70
2017-07-05T07:38:30.594Z,14.70
2017-07-05T07:40:59.280Z,14.90
2017-07-05T07:43:28.039Z,14.90
2017-07-05T07:45:56.586Z,14.80
2017-07-05T07:48:34.021Z,14.80
2017-07-05T07:51:02.878Z,14.80
2017-07-05T07:53:31.736Z,14.70
2017-07-05T07:56:00.372Z,15.00
2017-07-05T07:58:28.948Z,15.10
2017-07-05T08:00:57.632Z,16.00
2017-07-05T08:03:26.895Z,16.90
2017-07-05T08:05:55.362Z,17.80
2017-07-05T08:08:23.965Z,18.40
2017-07-05T08:10:52.934Z,18.90
2017-07-05T08:13:22.070Z,19.90
2017-07-05T08:15:50.778Z,20.60
2017-07-05T08:18:19.938Z,21.60
2017-07-05T08:20:48.490Z,20.90
2017-07-05T08:23:17.480Z,20.10
2017-07-05T08:25:46.245Z,19.20
2017-07-05T08:28:14.846Z,19.10
2017-07-05T08:30:43.505Z,19.70
2017-07-05T08:33:12.439Z,19.60
2017-07-05T08:35:41.372Z,19.60
2017-07-05T08:38:09.909Z,20.30
2017-07-05T08:40:38.482Z,20.30
2017-07-05T08:43:06.960Z,19.60
2017-07-05T08:45:36.631Z,19.00
2017-07-05T08:48:05.134Z,18.90
2017-07-05T08:50:34.363Z,18.80
2017-07-05T08:53:02.878Z,18.80
2017-07-05T08:55:31.376Z,19.30
2017-07-05T08:58:00.481Z,19.30
2017-07-05T09:00:29.058Z,19.80
2017-07-05T09:02:57.673Z,19.80
2017-07-05T09:05:26.208Z,19.90
2017-07-05T09:07:54.761Z,19.70
2017-07-05T09:10:23.303Z,19.60
2017-07-05T09:12:51.957Z,19.00
2017-07-05T09:15:20.499Z,19.00
2017-07-05T09:17:49.033Z,19.50
2017-07-05T09:20:17.594Z,19.90
2017-07-05T09:22:46.610Z,19.30
2017-07-05T09:25:15.270Z,19.20
2017-07-05T09:27:43.818Z,19.10
2017-07-05T09:30:13.205Z,18.70
2017-07-05T09:32:42.575Z,18.60
2017-07-05T09:35:11.123Z,18.30
2017-07-05T09:37:39.846Z,18.40
2017-07-05T09:40:08.567Z,18.80
2017-07-05T09:42:38.051Z,19.10
2017-07-05T09:45:06.583Z,19.10
2017-07-05T09:47:35.224Z,19.00
2017-07-05T09:50:05.211Z,19.60
2017-07-05T09:52:33.765Z,19.50
2017-07-05T09:55:02.313Z,19.20
2017-07-05T09:57:30.850Z,19.30
2017-07-05T09:59:59.778Z,19.10
2017-07-05T10:02:28.526Z,18.90
2017-07-05T10:04:57.062Z,18.90
2017-07-05T10:07:25.699Z,19.20
2017-07-05T10:09:54.240Z,19.20
2017-07-05T10:12:22.782Z,19.00
2017-07-05T10:14:51.692Z,19.20
2017-07-05T10:17:20.214Z,19.50
2017-07-05T10:19:48.821Z,19.80
2017-07-05T10:22:18.033Z,20.10
2017-07-05T10:24:46.641Z,20.40
2017-07-05T10:27:15.150Z,20.70
2017-07-05T10:29:44.642Z,21.00
2017-07-05T10:32:13.147Z,20.90
2017-07-05T10:34:41.707Z,21.20
2017-07-05T10:37:10.780Z,21.20
2017-07-05T10:39:39.341Z,21.10
2017-07-05T10:42:07.866Z,20.90
2017-07-05T10:44:36.474Z,20.90
2017-07-05T10:47:05.098Z,20.80
2017-07-05T10:49:33.663Z,20.70
2017-07-05T10:52:02.182Z,21.00
2017-07-05T10:54:30.790Z,21.10
2017-07-05T10:56:59.338Z,21.30
2017-07-05T10:59:27.854Z,21.30
2017-07-05T11:01:56.717Z,21.10
2017-07-05T11:04:25.416Z,21.40
2017-07-05T11:06:54.010Z,22.00
2017-07-05T11:09:22.560Z,22.70
2017-07-05T11:11:52.297Z,23.20
2017-07-05T11:14:20.830Z,23.90
2017-07-05T11:16:50.089Z,23.50
2017-07-05T11:19:18.976Z,23.50
2017-07-05T11:21:47.862Z,23.60
2017-07-05T11:24:16.445Z,23.70
2017-07-05T11:26:44.431Z,23.70
2017-07-05T11:29:12.981Z,24.50
2017-07-05T11:31:41.662Z,24.30
2017-07-05T11:34:10.710Z,23.60
2017-07-05T11:36:39.254Z,22.80
2017-07-05T11:39:07.758Z,22.30
2017-07-05T11:41:37.717Z,22.90
2017-07-05T11:44:06.744Z,23.40
2017-07-05T11:46:34.632Z,24.30
2017-07-05T11:49:02.580Z,25.00
2017-07-05T11:51:30.467Z,25.00
2017-07-05T11:53:58.417Z,25.40
2017-07-05T11:56:26.583Z,24.50
2017-07-05T11:58:56.039Z,25.30
2017-07-05T12:01:25.081Z,25.30
2017-07-05T12:03:54.285Z,25.80
2017-07-05T12:06:22.142Z,26.10
2017-07-05T12:08:50.023Z,27.00
2017-07-05T12:11:17.905Z,26.90
2017-07-05T12:15:19.422Z,26.50
2017-07-05T12:17:47.333Z,25.80
2017-07-05T12:20:15.956Z,25.30
2017-07-05T12:22:46.193Z,24.60
2017-07-05T12:25:14.889Z,24.20
2017-07-05T12:27:43.640Z,24.10
2017-07-05T12:30:12.198Z,24.40
2017-07-05T12:32:40.667Z,24.60
2017-07-05T12:35:09.204Z,24.30
2017-07-05T12:37:38.079Z,24.90
2017-07-05T12:40:06.685Z,24.70
2017-07-05T12:42:35.271Z,24.50
2017-07-05T12:45:04.407Z,24.80
2017-07-05T12:47:33.017Z,24.60
2017-07-05T12:50:01.090Z,25.50
2017-07-05T12:52:29.136Z,25.90
2017-07-05T12:54:57.261Z,26.10
2017-07-05T12:57:25.281Z,26.40
2017-07-05T12:59:53.209Z,26.00
2017-07-05T13:02:21.072Z,25.80
2017-07-05T13:04:49.448Z,25.20
2017-07-05T13:07:18.146Z,25.40
2017-07-05T13:09:46.027Z,25.80
2017-07-05T13:12:14.046Z,25.30
2017-07-05T13:14:41.936Z,25.80
2017-07-05T13:17:09.779Z,25.70
2017-07-05T13:19:37.688Z,26.10
2017-07-05T13:22:05.928Z,26.10
2017-07-05T13:24:33.850Z,25.70
2017-07-05T13:27:02.078Z,25.60
2017-07-05T13:29:30.368Z,25.40
2017-07-05T13:31:58.942Z,24.70
2017-07-05T13:34:27.740Z,23.90
2017-07-05T13:36:56.243Z,23.70
2017-07-05T13:39:24.927Z,23.50
2017-07-05T13:41:53.594Z,23.40
2017-07-05T13:44:22.503Z,23.20
2017-07-05T13:46:51.829Z,22.70
2017-07-05T13:49:20.493Z,23.00
2017-07-05T13:51:49.556Z,22.90
2017-07-05T13:54:17.584Z,23.20
2017-07-05T13:56:46.872Z,22.90
2017-07-05T13:59:15.564Z,22.80
2017-07-05T14:01:45.033Z,22.80
2017-07-05T14:04:13.623Z,22.80
2017-07-05T14:06:42.216Z,22.70
2017-07-05T14:09:10.786Z,22.50
2017-07-05T14:11:39.878Z,22.50
2017-07-05T14:14:08.443Z,22.50
2017-07-05T14:16:37.093Z,22.10
2017-07-05T14:19:06.542Z,22.10
2017-07-05T14:21:35.241Z,22.00
2017-07-05T14:24:27.559Z,22.20
2017-07-05T14:26:57.532Z,22.60
2017-07-05T14:29:31.205Z,22.60
2017-07-05T14:31:59.904Z,22.60
2017-07-05T14:34:33.059Z,22.70
2017-07-05T14:37:02.179Z,22.60
2017-07-05T14:39:30.738Z,22.70
2017-07-05T14:41:59.285Z,22.90
2017-07-05T14:44:27.837Z,22.50
2017-07-05T14:46:56.383Z,22.30
2017-07-05T14:49:27.728Z,21.90
2017-07-05T14:51:56.546Z,21.80
2017-07-05T14:54:25.502Z,22.00
2017-07-05T14:56:54.153Z,22.00
2017-07-05T14:59:23.240Z,22.00
2017-07-05T15:01:51.766Z,22.10
2017-07-05T15:04:20.514Z,22.10
2017-07-05T15:06:49.099Z,21.90
2017-07-05T15:09:18.775Z,22.00
2017-07-05T15:11:47.382Z,22.10
2017-07-05T15:14:16.005Z,21.90
2017-07-05T15:16:44.773Z,21.70
2017-07-05T15:19:13.365Z,21.90
2017-07-05T15:21:42.242Z,21.60
2017-07-05T15:24:10.895Z,21.50
2017-07-05T15:26:39.619Z,21.50
2017-07-05T15:29:08.157Z,21.70
2017-07-05T15:31:36.878Z,21.90
2017-07-05T15:34:05.556Z,21.90
2017-07-05T15:36:34.110Z,21.80
2017-07-05T15:39:02.843Z,21.70
2017-07-05T15:41:31.940Z,21.40
2017-07-05T15:44:00.612Z,21.20
2017-07-05T15:46:29.207Z,21.00
2017-07-05T15:48:57.745Z,20.60
2017-07-05T15:52:29.274Z,20.70
2017-07-05T15:54:58.116Z,20.70
2017-07-05T15:57:26.912Z,20.90
2017-07-05T15:59:55.843Z,20.90
2017-07-05T16:02:24.407Z,21.00
2017-07-05T16:04:52.976Z,21.20
2017-07-05T16:07:22.693Z,21.30
2017-07-05T16:09:54.407Z,21.40
2017-07-05T16:12:23.699Z,21.70
2017-07-05T16:14:52.937Z,21.60
2017-07-05T16:17:21.551Z,21.40
2017-07-05T16:19:50.064Z,21.40
2017-07-05T16:22:19.429Z,21.30
2017-07-05T16:24:47.949Z,21.30
2017-07-05T16:27:16.509Z,21.40
2017-07-05T16:29:45.032Z,21.50
2017-07-05T16:32:14.907Z,21.30
2017-07-05T16:34:43.572Z,21.30
2017-07-05T16:37:12.175Z,21.20
2017-07-05T16:39:40.726Z,21.00
2017-07-05T16:42:16.320Z,20.90
2017-07-05T16:44:46.386Z,20.70
2017-07-05T16:47:15.650Z,20.70
2017-07-05T16:49:44.210Z,20.60
2017-07-05T16:52:13.182Z,20.70
2017-07-05T16:54:41.780Z,20.80
2017-07-05T16:57:10.345Z,20.70
2017-07-05T16:59:38.877Z,20.60
2017-07-05T17:02:07.458Z,20.50
2017-07-05T17:04:35.999Z,20.40
2017-07-05T17:07:04.555Z,20.50
2017-07-05T17:09:33.139Z,20.30
2017-07-05T17:12:02.798Z,20.30
2017-07-05T17:14:31.312Z,20.20
2017-07-05T17:17:00.049Z,20.20
2017-07-05T17:19:28.654Z,20.10
2017-07-05T17:22:04.834Z,20.20
2017-07-05T17:24:34.124Z,20.10
2017-07-05T17:27:02.673Z,20.00
2017-07-05T17:29:31.386Z,20.10
2017-07-05T17:31:59.285Z,20.00
2017-07-05T17:34:28.151Z,19.90
2017-07-05T17:36:56.652Z,19.90
2017-07-05T17:39:25.939Z,20.00
2017-07-05T17:41:54.619Z,20.00
2017-07-05T17:44:23.675Z,19.90
2017-07-05T17:46:52.247Z,19.90
2017-07-05T17:49:20.838Z,19.90
2017-07-05T17:51:50.387Z,20.00
2017-07-05T17:54:19.279Z,19.90
2017-07-05T17:56:47.795Z,20.00
2017-07-05T17:59:16.445Z,19.90
2017-07-05T18:01:45.236Z,19.80
2017-07-05T18:04:20.696Z,19.60
2017-07-05T18:06:49.285Z,19.60
2017-07-05T18:09:18.556Z,19.50
2017-07-05T18:12:01.994Z,19.60
2017-07-05T18:14:30.786Z,19.50
2017-07-05T18:16:59.514Z,19.50
2017-07-05T18:19:28.146Z,19.50
2017-07-05T18:21:56.695Z,19.50
2017-07-05T18:24:26.272Z,19.20
2017-07-05T18:27:01.773Z,19.10
2017-07-05T18:29:30.453Z,19.00
2017-07-05T18:31:59.004Z,19.00
2017-07-05T18:34:27.603Z,19.00
2017-07-05T18:36:56.612Z,18.90
2017-07-05T18:39:25.248Z,18.90
2017-07-05T18:41:53.890Z,19.00
2017-07-05T18:44:22.449Z,19.00
2017-07-05T18:46:51.012Z,19.00
2017-07-05T18:49:19.674Z,19.00
2017-07-05T18:51:48.563Z,18.90
2017-07-05T18:54:17.524Z,18.80
2017-07-05T18:56:46.292Z,18.80
2017-07-05T18:59:14.858Z,18.80
2017-07-05T19:01:43.619Z,18.70
2017-07-05T19:04:12.204Z,18.60
2017-07-05T19:06:40.947Z,18.60
2017-07-05T19:09:09.583Z,18.60
2017-07-05T19:11:38.100Z,18.50
2017-07-05T19:14:07.142Z,18.50
2017-07-05T19:16:35.698Z,18.50
2017-07-05T19:19:04.554Z,18.40
2017-07-05T19:21:33.259Z,18.40
2017-07-05T19:24:01.906Z,18.30
2017-07-05T19:26:30.472Z,18.30
2017-07-05T19:28:59.009Z,18.30
2017-07-05T19:31:27.635Z,18.20
2017-07-05T19:33:56.657Z,18.20
2017-07-05T19:36:25.528Z,18.20
2017-07-05T19:38:54.054Z,18.00
2017-07-05T19:41:22.815Z,18.10
2017-07-05T19:43:51.673Z,18.10
2017-07-05T19:46:21.069Z,18.10
2017-07-05T19:48:50.807Z,18.10
2017-07-05T19:51:19.345Z,18.00
2017-07-05T19:53:47.987Z,18.10
2017-07-05T19:56:16.788Z,18.00
2017-07-05T19:58:45.384Z,18.00
2017-07-05T20:01:14.300Z,18.00
2017-07-05T20:03:43.242Z,17.90
2017-07-05T20:06:11.821Z,17.90
2017-07-05T20:08:40.342Z,17.80
2017-07-05T20:11:09.007Z,17.80
2017-07-05T20:13:37.541Z,17.80
2017-07-05T20:16:06.482Z,17.80
2017-07-05T20:18:35.095Z,17.80
2017-07-05T20:21:03.656Z,17.80
2017-07-05T20:23:32.198Z,17.70
2017-07-05T20:26:00.963Z,17.60
2017-07-05T20:28:29.623Z,17.60
2017-07-05T20:30:58.115Z,17.60
2017-07-05T20:33:26.782Z,17.60
2017-07-05T20:35:55.785Z,17.60
2017-07-05T20:38:24.443Z,17.50
2017-07-05T20:40:53.090Z,17.50
2017-07-05T20:43:21.718Z,17.50
2017-07-05T20:45:50.234Z,17.40
2017-07-05T20:48:19.482Z,17.40
2017-07-05T20:50:48.228Z,17.40
2017-07-05T20:53:16.971Z,17.40
2017-07-05T20:55:45.504Z,17.40
2017-07-05T20:58:14.691Z,17.40
2017-07-05T21:00:43.180Z,17.30
2017-07-05T21:03:11.923Z,17.30
2017-07-05T21:05:40.501Z,17.30
2017-07-05T21:08:09.113Z,17.20
2017-07-05T21:10:37.701Z,17.20
2017-07-05T21:13:06.185Z,17.10
2017-07-05T21:15:34.729Z,17.10
2017-07-05T21:18:03.590Z,17.10
2017-07-05T21:20:32.634Z,17.10
2017-07-05T21:23:01.181Z,17.10
2017-07-05T21:25:29.774Z,17.00
2017-07-05T21:27:58.405Z,17.00
2017-07-05T21:30:26.927Z,16.90
2017-07-05T21:32:55.417Z,16.90
2017-07-05T21:35:24.050Z,16.90
2017-07-05T21:37:52.666Z,16.90
2017-07-05T21:40:21.685Z,16.90
2017-07-05T21:42:50.388Z,16.80
2017-07-05T21:45:18.890Z,16.80
2017-07-05T21:47:47.500Z,16.80
2017-07-05T21:50:16.283Z,16.80
2017-07-05T21:52:45.299Z,16.70
2017-07-05T21:55:13.838Z,16.70
2017-07-05T21:57:42.328Z,16.70
2017-07-05T22:00:10.922Z,16.60
2017-07-05T22:02:39.445Z,16.60
2017-07-05T22:05:09.466Z,16.60
2017-07-05T22:07:37.955Z,16.60
2017-07-05T22:10:06.441Z,16.50
2017-07-05T22:12:37.079Z,16.50
2017-07-05T22:15:07.543Z,16.50
2017-07-05T22:17:36.259Z,16.40
2017-07-05T22:20:04.760Z,16.40
2017-07-05T22:22:33.452Z,16.40
2017-07-05T22:25:02.341Z,16.30
2017-07-05T22:27:31.031Z,16.20
2017-07-05T22:30:00.399Z,16.20
2017-07-05T22:32:29.068Z,16.10
2017-07-05T22:34:57.746Z,16.10
2017-07-05T22:37:26.318Z,16.10
2017-07-05T22:39:55.702Z,16.00
2017-07-05T22:42:26.460Z,15.90
2017-07-05T22:44:56.400Z,15.90
2017-07-05T22:47:26.830Z,15.90
2017-07-05T22:49:55.523Z,15.80
2017-07-05T22:52:24.045Z,15.80
2017-07-05T22:54:52.517Z,15.80
2017-07-05T22:57:21.258Z,15.70
2017-07-05T22:59:49.757Z,15.60
2017-07-05T23:02:18.296Z,15.50
2017-07-05T23:04:46.927Z,15.40
2017-07-05T23:07:15.464Z,15.50
2017-07-05T23:09:44.321Z,15.50
2017-07-05T23:12:12.927Z,15.60
2017-07-05T23:14:41.461Z,15.50
2017-07-05T23:17:10.051Z,15.60
2017-07-05T23:19:38.573Z,15.60
2017-07-05T23:22:07.094Z,15.50
2017-07-05T23:24:35.644Z,15.60
2017-07-05T23:27:04.176Z,15.50
2017-07-05T23:29:32.689Z,15.40
2017-07-05T23:32:01.256Z,15.50
2017-07-05T23:34:29.765Z,15.50
2017-07-05T23:36:58.889Z,15.40
2017-07-05T23:39:27.527Z,15.40
2017-07-05T23:41:56.051Z,15.40
2017-07-05T23:44:24.638Z,15.40
2017-07-05T23:46:53.160Z,15.40
2017-07-05T23:49:21.874Z,15.40
2017-07-05T23:51:50.414Z,15.40
2017-07-05T23:54:19.082Z,15.30
2017-07-05T23:56:47.892Z,15.30
2017-07-05T23:59:16.522Z,15.30
